Time,TemperatureF,DewpointF,PressureIn,WindDirection,WindDirectionDegrees,WindSpeedMPH,WindSpeedGustMPH,Humidity,HourlyPrecipIn,Conditions,Clouds,dailyrainin,SoftwareType,DateUTC
2013-05-14 00:01:00,57.0,41.0,-100.00,NNW,330,12.0,19.0,55,-99.99,,,-99.99,,2013-05-14 07:01:00,
2013-05-14 00:11:00,56.0,40.0,-100.00,NW,325,11.0,20.0,55,-99.99,,,-99.99,,2013-05-14 07:11:00,
2013-05-14 00:21:00,56.0,40.0,-100.00,NNW,335,9.0,19.0,55,-99.99,,,-99.99,,2013-05-14 07:21:00,
2013-05-14 00:31:00,56.0,40.0,-100.00,NNW,335,9.0,19.0,55,-99.99,,,-99.99,,2013-05-14 07:31:00,
2013-05-14 00:41:00,55.0,40.0,-100.00,NNW,335,12.0,21.0,55,-99.99,,,-99.99,,2013-05-14 07:41:00,
2013-05-14 00:52:00,55.0,39.0,-100.00,NW,325,12.0,21.0,55,-99.99,,,-99.99,,2013-05-14 07:52:00,
2013-05-14 01:02:00,55.0,39.0,-100.00,NW,325,12.0,21.0,55,-99.99,,,-99.99,,2013-05-14 08:02:00,
2013-05-14 01:11:00,54.0,39.0,-100.00,NW,325,11.0,19.0,56,-99.99,,,-99.99,,2013-05-14 08:11:00,
2013-05-14 01:21:00,54.0,39.0,-100.00,NW,320,8.0,19.0,57,-99.99,,,-99.99,,2013-05-14 08:21:00,
2013-05-14 01:31:00,54.0,39.0,-100.00,NW,320,8.0,19.0,57,-99.99,,,-99.99,,2013-05-14 08:31:00,
2013-05-14 01:41:00,53.0,39.0,-100.00,WNW,295,7.0,16.0,60,-99.99,,,-99.99,,2013-05-14 08:41:00,
2013-05-14 01:51:00,53.0,39.0,-100.00,WNW,300,7.0,16.0,60,-99.99,,,-99.99,,2013-05-14 08:51:00,
2013-05-14 02:01:00,53.0,39.0,-100.00,WNW,300,7.0,16.0,60,-99.99,,,-99.99,,2013-05-14 09:01:00,
2013-05-14 02:11:00,52.0,39.0,-100.00,WNW,300,8.0,17.0,61,-99.99,,,-99.99,,2013-05-14 09:11:00,
2013-05-14 02:21:00,52.0,39.0,-100.00,NW,320,9.0,18.0,61,-99.99,,,-99.99,,2013-05-14 09:21:00,
2013-05-14 02:32:00,52.0,39.0,-100.00,NW,320,9.0,18.0,61,-99.99,,,-99.99,,2013-05-14 09:32:00,
2013-05-14 02:44:00,52.0,39.0,-100.00,NW,320,9.0,21.0,61,-99.99,,,-99.99,,2013-05-14 09:44:00,
2013-05-14 02:54:00,52.0,39.0,-100.00,NW,320,10.0,22.0,61,-99.99,,,-99.99,,2013-05-14 09:54:00,
2013-05-14 03:04:00,52.0,39.0,-100.00,NW,320,10.0,22.0,61,-99.99,,,-99.99,,2013-05-14 10:04:00,
2013-05-14 03:14:00,52.0,39.0,-100.00,NW,320,12.0,23.0,61,-99.99,,,-99.99,,2013-05-14 10:14:00,
2013-05-14 03:25:00,52.0,40.0,-100.00,NW,315,10.0,21.0,62,-99.99,,,-99.99,,2013-05-14 10:25:00,
2013-05-14 03:32:00,52.0,40.0,-100.00,NW,315,10.0,21.0,62,-99.99,,,-99.99,,2013-05-14 10:32:00,
2013-05-14 03:42:00,52.0,40.0,-100.00,WNW,300,10.0,22.0,63,-99.99,,,-99.99,,2013-05-14 10:42:00,
2013-05-14 03:52:00,51.0,40.0,-100.00,WNW,285,9.0,20.0,66,-99.99,,,-99.99,,2013-05-14 10:52:00,
2013-05-14 04:02:00,51.0,40.0,-100.00,WNW,285,9.0,20.0,66,-99.99,,,-99.99,,2013-05-14 11:02:00,
2013-05-14 04:11:00,50.0,40.0,-100.00,WNW,285,8.0,18.0,68,-99.99,,,-99.99,,2013-05-14 11:11:00,
2013-05-14 04:21:00,49.0,40.0,-100.00,NW,310,11.0,21.0,72,-99.99,,,-99.99,,2013-05-14 11:21:00,
2013-05-14 04:32:00,49.0,40.0,-100.00,NW,310,11.0,21.0,72,-99.99,,,-99.99,,2013-05-14 11:32:00,
2013-05-14 04:43:00,49.0,42.0,-100.00,WNW,290,9.0,22.0,76,-99.99,,,-99.99,,2013-05-14 11:43:00,
2013-05-14 04:52:00,49.0,43.0,-100.00,NNW,330,18.0,29.0,79,-99.99,,,-99.99,,2013-05-14 11:52:00,
2013-05-14 05:02:00,49.0,43.0,-100.00,NNW,330,18.0,29.0,79,-99.99,,,-99.99,,2013-05-14 12:02:00,
2013-05-14 05:12:00,49.0,43.0,-100.00,NNW,335,19.0,29.0,80,-99.99,,,-99.99,,2013-05-14 12:12:00,
2013-05-14 05:21:00,48.0,43.0,-100.00,NNW,330,14.0,31.0,82,-99.99,,,-99.99,,2013-05-14 12:21:00,
2013-05-14 05:32:00,48.0,43.0,-100.00,NNW,330,14.0,31.0,82,-99.99,,,-99.99,,2013-05-14 12:32:00,
2013-05-14 05:42:00,48.0,43.0,-100.00,NNW,330,15.0,24.0,85,-99.99,,,-99.99,,2013-05-14 12:42:00,
2013-05-14 05:51:00,47.0,44.0,-100.00,NNW,330,13.0,22.0,88,-99.99,,,-99.99,,2013-05-14 12:51:00,
2013-05-14 06:01:00,47.0,44.0,-100.00,NNW,330,13.0,22.0,88,-99.99,,,-99.99,,2013-05-14 13:01:00,
2013-05-14 06:11:00,47.0,44.0,-100.00,NNW,335,15.0,23.0,89,-99.99,,,-99.99,,2013-05-14 13:11:00,
2013-05-14 06:22:00,48.0,45.0,-100.00,NNW,330,15.0,26.0,89,-99.99,,,-99.99,,2013-05-14 13:22:00,
2013-05-14 06:32:00,48.0,45.0,-100.00,NNW,330,15.0,26.0,89,-99.99,,,-99.99,,2013-05-14 13:32:00,
2013-05-14 06:41:00,48.0,45.0,-100.00,NNW,335,14.0,24.0,89,-99.99,,,-99.99,,2013-05-14 13:41:00,
2013-05-14 06:52:00,48.0,45.0,-100.00,NW,325,11.0,19.0,88,-99.99,,,-99.99,,2013-05-14 13:52:00,
2013-05-14 07:01:00,48.0,45.0,-100.00,NW,325,11.0,19.0,88,-99.99,,,-99.99,,2013-05-14 14:01:00,
2013-05-14 07:11:00,48.0,45.0,-100.00,NNW,340,12.0,22.0,87,-99.99,,,-99.99,,2013-05-14 14:11:00,
2013-05-14 07:22:00,48.0,44.0,-100.00,NNW,330,9.0,19.0,85,-99.99,,,-99.99,,2013-05-14 14:22:00,
2013-05-14 07:31:00,48.0,44.0,-100.00,NNW,330,9.0,19.0,85,-99.99,,,-99.99,,2013-05-14 14:31:00,
2013-05-14 07:41:00,49.0,45.0,-100.00,NNW,330,9.0,17.0,84,-99.99,,,-99.99,,2013-05-14 14:41:00,
2013-05-14 07:52:00,51.0,44.0,-100.00,NW,325,6.0,14.0,78,-99.99,,,-99.99,,2013-05-14 14:52:00,
2013-05-14 08:01:00,51.0,44.0,-100.00,NW,325,6.0,14.0,78,-99.99,,,-99.99,,2013-05-14 15:01:00,
2013-05-14 08:12:00,52.0,45.0,-100.00,NW,325,7.0,13.0,75,-99.99,,,-99.99,,2013-05-14 15:12:00,
2013-05-14 08:21:00,51.0,44.0,-100.00,NW,305,9.0,19.0,77,-99.99,,,-99.99,,2013-05-14 15:21:00,
2013-05-14 08:32:00,51.0,44.0,-100.00,NW,305,9.0,19.0,77,-99.99,,,-99.99,,2013-05-14 15:32:00,
2013-05-14 08:43:00,50.0,44.0,-100.00,NNW,330,16.0,28.0,80,-99.99,,,-99.99,,2013-05-14 15:43:00,
2013-05-14 08:53:00,51.0,45.0,-100.00,WNW,295,9.0,22.0,81,-99.99,,,-99.99,,2013-05-14 15:53:00,
2013-05-14 09:02:00,51.0,45.0,-100.00,WNW,295,9.0,22.0,81,-99.99,,,-99.99,,2013-05-14 16:02:00,
2013-05-14 09:12:00,52.0,45.0,-100.00,NNW,330,11.0,26.0,77,-99.99,,,-99.99,,2013-05-14 16:12:00,
2013-05-14 09:23:00,53.0,45.0,-100.00,NW,325,12.0,19.0,73,-99.99,,,-99.99,,2013-05-14 16:23:00,
2013-05-14 09:33:00,53.0,45.0,-100.00,NW,325,12.0,19.0,73,-99.99,,,-99.99,,2013-05-14 16:33:00,
2013-05-14 09:43:00,54.0,45.0,-100.00,WNW,300,9.0,19.0,72,-99.99,,,-99.99,,2013-05-14 16:43:00,
2013-05-14 09:54:00,55.0,46.0,-100.00,NNW,330,11.0,22.0,72,-99.99,,,-99.99,,2013-05-14 16:54:00,
2013-05-14 10:03:00,55.0,46.0,-100.00,NNW,330,11.0,22.0,72,-99.99,,,-99.99,,2013-05-14 17:03:00,
2013-05-14 10:13:00,55.0,46.0,-100.00,WNW,295,9.0,21.0,71,-99.99,,,-99.99,,2013-05-14 17:13:00,
2013-05-14 10:24:00,56.0,47.0,-100.00,WNW,300,12.0,22.0,71,-99.99,,,-99.99,,2013-05-14 17:24:00,
2013-05-14 10:32:00,56.0,47.0,-100.00,WNW,300,12.0,22.0,71,-99.99,,,-99.99,,2013-05-14 17:32:00,
2013-05-14 10:43:00,56.0,46.0,-100.00,WNW,300,12.0,25.0,69,-99.99,,,-99.99,,2013-05-14 17:43:00,
2013-05-14 10:52:00,57.0,46.0,-100.00,WNW,295,9.0,22.0,68,-99.99,,,-99.99,,2013-05-14 17:52:00,
2013-05-14 11:02:00,57.0,46.0,-100.00,WNW,295,9.0,22.0,68,-99.99,,,-99.99,,2013-05-14 18:02:00,
2013-05-14 11:12:00,58.0,47.0,-100.00,NNW,330,12.0,22.0,67,-99.99,,,-99.99,,2013-05-14 18:12:00,
2013-05-14 11:22:00,59.0,47.0,-100.00,NW,325,12.0,24.0,64,-99.99,,,-99.99,,2013-05-14 18:22:00,
2013-05-14 11:32:00,59.0,47.0,-100.00,NW,325,12.0,24.0,64,-99.99,,,-99.99,,2013-05-14 18:32:00,
2013-05-14 11:42:00,60.0,47.0,-100.00,NNW,335,12.0,22.0,62,-99.99,,,-99.99,,2013-05-14 18:42:00,
2013-05-14 11:52:00,60.0,46.0,-100.00,NNW,335,15.0,26.0,59,-99.99,,,-99.99,,2013-05-14 18:52:00,
2013-05-14 12:01:00,60.0,46.0,-100.00,NNW,335,15.0,26.0,59,-99.99,,,-99.99,,2013-05-14 19:01:00,
2013-05-14 12:11:00,62.0,46.0,-100.00,NNW,330,11.0,24.0,56,-99.99,,,-99.99,,2013-05-14 19:11:00,
2013-05-14 12:21:00,63.0,45.0,-100.00,NW,315,14.0,24.0,53,-99.99,,,-99.99,,2013-05-14 19:21:00,
2013-05-14 12:31:00,63.0,45.0,-100.00,NW,315,14.0,24.0,53,-99.99,,,-99.99,,2013-05-14 19:31:00,
2013-05-14 12:42:00,65.0,46.0,-100.00,NNW,335,11.0,22.0,51,-99.99,,,-99.99,,2013-05-14 19:42:00,
2013-05-14 12:52:00,65.0,46.0,-100.00,NNW,330,12.0,27.0,50,-99.99,,,-99.99,,2013-05-14 19:52:00,
2013-05-14 13:02:00,65.0,46.0,-100.00,NNW,330,12.0,27.0,50,-99.99,,,-99.99,,2013-05-14 20:02:00,
2013-05-14 13:11:00,66.0,47.0,-100.00,NNW,330,10.0,22.0,49,-99.99,,,-99.99,,2013-05-14 20:11:00,
2013-05-14 13:22:00,67.0,45.0,-100.00,NNW,335,12.0,21.0,45,-99.99,,,-99.99,,2013-05-14 20:22:00,
2013-05-14 13:32:00,67.0,45.0,-100.00,NNW,335,12.0,21.0,45,-99.99,,,-99.99,,2013-05-14 20:32:00,
2013-05-14 13:44:00,67.0,43.0,-100.00,NW,315,11.0,22.0,42,-99.99,,,-99.99,,2013-05-14 20:44:00,
2013-05-14 13:52:00,69.0,45.0,-100.00,NNW,330,9.0,18.0,42,-99.99,,,-99.99,,2013-05-14 20:52:00,
2013-05-14 14:03:00,69.0,45.0,-100.00,NNW,330,9.0,18.0,42,-99.99,,,-99.99,,2013-05-14 21:03:00,
2013-05-14 14:12:00,69.0,45.0,-100.00,NNW,340,13.0,21.0,41,-99.99,,,-99.99,,2013-05-14 21:12:00,
2013-05-14 14:22:00,70.0,46.0,-100.00,North,0,13.0,23.0,41,-99.99,,,-99.99,,2013-05-14 21:22:00,
2013-05-14 14:33:00,70.0,46.0,-100.00,North,0,13.0,23.0,41,-99.99,,,-99.99,,2013-05-14 21:33:00,
2013-05-14 14:42:00,70.0,46.0,-100.00,North,0,13.0,23.0,41,-99.99,,,-99.99,,2013-05-14 21:42:00,
2013-05-14 14:52:00,70.0,44.0,-100.00,NW,325,10.0,22.0,39,-99.99,,,-99.99,,2013-05-14 21:52:00,
2013-05-14 15:03:00,70.0,44.0,-100.00,NW,325,10.0,22.0,39,-99.99,,,-99.99,,2013-05-14 22:03:00,
2013-05-14 15:13:00,71.0,45.0,-100.00,WNW,295,11.0,21.0,39,-99.99,,,-99.99,,2013-05-14 22:13:00,
2013-05-14 15:24:00,72.0,46.0,-100.00,NNW,345,7.0,17.0,39,-99.99,,,-99.99,,2013-05-14 22:24:00,
2013-05-14 15:34:00,72.0,46.0,-100.00,NNW,345,7.0,17.0,39,-99.99,,,-99.99,,2013-05-14 22:34:00,
2013-05-14 15:45:00,73.0,46.0,-100.00,NNW,335,11.0,19.0,38,-99.99,,,-99.99,,2013-05-14 22:45:00,
2013-05-14 15:54:00,74.0,46.0,-100.00,NNW,330,11.0,21.0,37,-99.99,,,-99.99,,2013-05-14 22:54:00,
2013-05-14 16:03:00,74.0,46.0,-100.00,NNW,330,11.0,21.0,37,-99.99,,,-99.99,,2013-05-14 23:03:00,
2013-05-14 16:12:00,71.0,44.0,-100.00,NNW,340,11.0,21.0,38,-99.99,,,-99.99,,2013-05-14 23:12:00,
2013-05-14 16:21:00,72.0,45.0,-100.00,NNW,335,7.0,15.0,39,-99.99,,,-99.99,,2013-05-14 23:21:00,
2013-05-14 16:31:00,72.0,45.0,-100.00,NNW,335,7.0,15.0,39,-99.99,,,-99.99,,2013-05-14 23:31:00,
2013-05-14 16:44:00,73.0,46.0,-100.00,North,0,7.0,16.0,38,-99.99,,,-99.99,,2013-05-14 23:44:00,
2013-05-14 16:52:00,72.0,45.0,-100.00,NW,320,9.0,21.0,38,-99.99,,,-99.99,,2013-05-14 23:52:00,
2013-05-14 17:01:00,72.0,45.0,-100.00,NW,320,9.0,21.0,38,-99.99,,,-99.99,,2013-05-15 00:01:00,
2013-05-14 17:11:00,72.0,45.0,-100.00,NNW,335,11.0,19.0,37,-99.99,,,-99.99,,2013-05-15 00:11:00,
2013-05-14 17:21:00,73.0,46.0,-100.00,NNW,330,7.0,17.0,37,-99.99,,,-99.99,,2013-05-15 00:21:00,
2013-05-14 17:32:00,73.0,46.0,-100.00,NNW,330,7.0,17.0,37,-99.99,,,-99.99,,2013-05-15 00:32:00,
2013-05-14 17:41:00,73.0,46.0,-100.00,NNW,330,7.0,17.0,37,-99.99,,,-99.99,,2013-05-15 00:41:00,
2013-05-14 17:51:00,74.0,46.0,-100.00,NNW,330,10.0,20.0,36,-99.99,,,-99.99,,2013-05-15 00:51:00,
2013-05-14 18:01:00,74.0,46.0,-100.00,NNW,330,10.0,20.0,36,-99.99,,,-99.99,,2013-05-15 01:01:00,
2013-05-14 18:11:00,73.0,45.0,-100.00,NNW,335,9.0,22.0,36,-99.99,,,-99.99,,2013-05-15 01:11:00,
2013-05-14 18:21:00,73.0,44.0,-100.00,NNW,335,7.0,17.0,36,-99.99,,,-99.99,,2013-05-15 01:21:00,
2013-05-14 18:31:00,73.0,44.0,-100.00,NNW,335,7.0,17.0,36,-99.99,,,-99.99,,2013-05-15 01:31:00,
2013-05-14 18:42:00,73.0,45.0,-100.00,NNW,335,12.0,19.0,36,-99.99,,,-99.99,,2013-05-15 01:42:00,
2013-05-14 18:52:00,72.0,45.0,-100.00,NNW,335,12.0,20.0,37,-99.99,,,-99.99,,2013-05-15 01:52:00,
2013-05-14 19:01:00,72.0,45.0,-100.00,NNW,335,12.0,20.0,37,-99.99,,,-99.99,,2013-05-15 02:01:00,
2013-05-14 19:11:00,72.0,44.0,-100.00,NNW,330,11.0,16.0,36,-99.99,,,-99.99,,2013-05-15 02:11:00,
2013-05-14 19:21:00,72.0,44.0,-100.00,NNW,345,9.0,17.0,36,-99.99,,,-99.99,,2013-05-15 02:21:00,
2013-05-14 19:31:00,72.0,44.0,-100.00,NNW,345,9.0,17.0,36,-99.99,,,-99.99,,2013-05-15 02:31:00,
2013-05-14 19:42:00,72.0,43.0,-100.00,NNW,330,11.0,17.0,36,-99.99,,,-99.99,,2013-05-15 02:42:00,
2013-05-14 19:51:00,71.0,42.0,-100.00,NNW,335,9.0,17.0,36,-99.99,,,-99.99,,2013-05-15 02:51:00,
2013-05-14 20:01:00,71.0,42.0,-100.00,NNW,335,9.0,17.0,36,-99.99,,,-99.99,,2013-05-15 03:01:00,
2013-05-14 20:12:00,69.0,43.0,-100.00,NNW,345,13.0,19.0,39,-99.99,,,-99.99,,2013-05-15 03:12:00,
2013-05-14 20:21:00,68.0,43.0,-100.00,NNW,340,11.0,17.0,40,-99.99,,,-99.99,,2013-05-15 03:21:00,
2013-05-14 20:33:00,68.0,43.0,-100.00,NNW,340,11.0,17.0,40,-99.99,,,-99.99,,2013-05-15 03:33:00,
2013-05-14 20:44:00,67.0,43.0,-100.00,NNW,335,7.0,13.0,42,-99.99,,,-99.99,,2013-05-15 03:44:00,
2013-05-14 20:54:00,65.0,42.0,-100.00,NNW,330,5.0,13.0,44,-99.99,,,-99.99,,2013-05-15 03:54:00,
2013-05-14 21:03:00,65.0,42.0,-100.00,NNW,330,5.0,13.0,44,-99.99,,,-99.99,,2013-05-15 04:03:00,
2013-05-14 21:12:00,63.0,42.0,-100.00,NNW,335,6.0,11.0,45,-99.99,,,-99.99,,2013-05-15 04:12:00,
2013-05-14 21:23:00,63.0,42.0,-100.00,NNW,335,11.0,17.0,45,-99.99,,,-99.99,,2013-05-15 04:23:00,
2013-05-14 21:33:00,63.0,42.0,-100.00,NNW,335,11.0,17.0,45,-99.99,,,-99.99,,2013-05-15 04:33:00,
2013-05-14 21:42:00,62.0,41.0,-100.00,NW,325,9.0,17.0,46,-99.99,,,-99.99,,2013-05-15 04:42:00,
2013-05-14 21:52:00,62.0,41.0,-100.00,NNW,330,9.0,20.0,47,-99.99,,,-99.99,,2013-05-15 04:52:00,
2013-05-14 22:02:00,62.0,41.0,-100.00,NNW,330,9.0,20.0,47,-99.99,,,-99.99,,2013-05-15 05:02:00,
2013-05-14 22:12:00,60.0,41.0,-100.00,NNW,340,10.0,17.0,48,-99.99,,,-99.99,,2013-05-15 05:12:00,
2013-05-14 22:22:00,60.0,40.0,-100.00,NNW,330,10.0,18.0,48,-99.99,,,-99.99,,2013-05-15 05:22:00,
2013-05-14 22:32:00,60.0,40.0,-100.00,NNW,330,10.0,18.0,48,-99.99,,,-99.99,,2013-05-15 05:32:00,
2013-05-14 22:42:00,59.0,40.0,-100.00,NNW,340,10.0,17.0,49,-99.99,,,-99.99,,2013-05-15 05:42:00,
2013-05-14 22:52:00,58.0,40.0,-100.00,NNW,330,9.0,14.0,50,-99.99,,,-99.99,,2013-05-15 05:52:00,
2013-05-14 23:02:00,58.0,40.0,-100.00,NNW,330,9.0,14.0,50,-99.99,,,-99.99,,2013-05-15 06:02:00,
2013-05-14 23:11:00,57.0,39.0,-100.00,NNW,335,9.0,15.0,50,-99.99,,,-99.99,,2013-05-15 06:11:00,
2013-05-14 23:21:00,57.0,39.0,-100.00,NNW,340,8.0,15.0,50,-99.99,,,-99.99,,2013-05-15 06:21:00,
2013-05-14 23:31:00,57.0,39.0,-100.00,NNW,330,9.0,20.0,50,-99.99,,,-99.99,,2013-05-15 06:31:00,
2013-05-14 23:41:00,57.0,39.0,-100.00,NNW,330,9.0,20.0,50,-99.99,,,-99.99,,2013-05-15 06:41:00,
2013-05-14 23:51:00,57.0,38.0,-100.00,NNW,330,11.0,22.0,50,-99.99,,,-99.99,,2013-05-15 06:51:00,